Clarksfield, Ohio
Current Conditions -  °F | °C
As of 5:53 PM on Thursday 23 Oct 2014 (Local Time) from KLPR Reporting Station
Clear Clear  
Wind Chill: 52°   Ceiling: Unl
Heat Index: 52°   Visibility: 10mi
Dew Point: 39°   Wind: 5mph
Humidity: 61%   Direction: 360°N
Pressure: 30.15"   Gusts: NA
Location:  41.2376°N, 82.3866°W
Report Text: KLPR 232153Z AUTO 36004KT 10SM CLR 11/04 A3015 RMK AO2 SLP212 T01110039 TSNO $
Loading
Personal Weather Stations






























Interactive Weather Map
Tropical Storm Tracking
New forecast layout! Learn more

10-Day Weather Forecast

Advertisements
Track Severe Weather on mobile